Time;durP1;ratioP1;P1;durP2;ratioP2;P2;SDS_P1;SDS_P2;PMS_P1;PMS_P2;Temp;Humidity;BMP_temperature;BMP_pressure;BME280_temperature;BME280_humidity;BME280_pressure;Samples;Min_cycle;Max_cycle;Signal;HPM_P1;HPM_P2
2021/08/18 00:01:37;;;;;;;13.80;4.30;;;;;;;;;;5068520;28;20036;-68
2021/08/18 00:04:04;;;;;;;16.35;4.60;;;;;;;;;;5075333;28;20055;-67
2021/08/18 00:06:30;;;;;;;12.43;4.03;;;;;;;;;;5072238;28;20782;-67
2021/08/18 00:08:57;;;;;;;17.55;4.53;;;;;;;;;;5075871;28;20043;-71
2021/08/18 00:11:23;;;;;;;15.60;4.45;;;;;;;;;;5072160;28;20022;-71
2021/08/18 00:13:49;;;;;;;12.68;4.03;;;;;;;;;;5071205;28;20491;-69
2021/08/18 00:16:16;;;;;;;15.63;4.03;;;;;;;;;;5075422;28;20532;-67
2021/08/18 00:18:42;;;;;;;15.25;4.63;;;;;;;;;;5074324;28;20040;-67
2021/08/18 00:21:08;;;;;;;15.32;4.20;;;;;;;;;;5080217;28;20027;-67
2021/08/18 00:23:35;;;;;;;18.25;4.97;;;;;;;;;;5072562;28;20043;-67
2021/08/18 00:26:01;;;;;;;15.23;4.60;;;;;;;;;;5076141;28;20062;-68
2021/08/18 00:28:27;;;;;;;17.63;4.90;;;;;;;;;;5079866;28;20051;-67
2021/08/18 00:30:53;;;;;;;30.30;6.03;;;;;;;;;;5073472;28;20024;-67
2021/08/18 00:33:19;;;;;;;38.08;6.68;;;;;;;;;;5075952;28;20103;-69
2021/08/18 00:35:45;;;;;;;25.23;5.38;;;;;;;;;;5071618;28;20074;-67
2021/08/18 00:38:11;;;;;;;20.85;5.05;;;;;;;;;;5071563;28;20057;-67
2021/08/18 00:40:37;;;;;;;21.05;5.18;;;;;;;;;;5069449;28;20035;-67
2021/08/18 00:43:04;;;;;;;16.92;4.30;;;;;;;;;;5067729;28;20094;-67
2021/08/18 00:45:30;;;;;;;23.98;5.82;;;;;;;;;;5073127;28;20886;-67
2021/08/18 00:47:58;;;;;;;23.25;6.15;;;;;;;;;;5066227;28;20029;-67
2021/08/18 00:50:26;;;;;;;19.90;6.22;;;;;;;;;;5069755;28;20124;-67
2021/08/18 00:52:52;;;;;;;25.42;5.88;;;;;;;;;;5066550;28;20025;-67
2021/08/18 00:55:19;;;;;;;23.58;6.07;;;;;;;;;;5066785;28;20145;-67
2021/08/18 00:57:46;;;;;;;14.88;5.32;;;;;;;;;;5068460;28;20040;-67
2021/08/18 01:00:13;;;;;;;23.38;7.82;;;;;;;;;;5069697;28;20028;-67
2021/08/18 01:02:43;;;;;;;20.52;5.13;;;;;;;;;;5069712;28;20020;-67
2021/08/18 01:05:11;;;;;;;20.33;5.10;;;;;;;;;;5066513;28;20559;-67
2021/08/18 01:07:37;;;;;;;18.42;4.82;;;;;;;;;;5070224;28;20106;-67
2021/08/18 01:10:07;;;;;;;23.85;6.20;;;;;;;;;;5068787;28;20500;-67
2021/08/18 01:12:34;;;;;;;21.20;5.57;;;;;;;;;;5071560;28;20036;-68
2021/08/18 01:15:02;;;;;;;21.52;5.85;;;;;;;;;;5068754;28;20021;-69
2021/08/18 01:17:32;;;;;;;51.22;6.68;;;;;;;;;;5065970;28;20080;-67
2021/08/18 01:19:59;;;;;;;24.17;5.90;;;;;;;;;;5068130;28;20392;-67
2021/08/18 01:22:25;;;;;;;20.08;5.80;;;;;;;;;;5064266;28;20025;-67
2021/08/18 01:24:51;;;;;;;15.90;5.40;;;;;;;;;;5072183;28;20021;-68
2021/08/18 01:27:17;;;;;;;16.73;5.82;;;;;;;;;;5069407;28;20081;-68
2021/08/18 01:29:43;;;;;;;17.35;5.35;;;;;;;;;;5066911;28;20024;-68
2021/08/18 01:32:10;;;;;;;22.52;5.68;;;;;;;;;;5072214;28;20039;-67
2021/08/18 01:34:36;;;;;;;14.20;4.55;;;;;;;;;;5069132;28;20032;-68
2021/08/18 01:37:03;;;;;;;18.05;5.20;;;;;;;;;;5069023;28;20044;-67
2021/08/18 01:39:29;;;;;;;19.02;4.85;;;;;;;;;;5071393;28;20120;-67
2021/08/18 01:41:56;;;;;;;23.40;5.50;;;;;;;;;;5069871;28;20084;-70
2021/08/18 01:44:22;;;;;;;18.15;5.47;;;;;;;;;;5077779;28;20099;-67
2021/08/18 01:46:48;;;;;;;17.23;5.68;;;;;;;;;;5067540;28;20029;-67
2021/08/18 01:49:15;;;;;;;15.93;5.80;;;;;;;;;;5070326;28;20035;-67
2021/08/18 01:51:41;;;;;;;20.98;5.80;;;;;;;;;;5069047;28;20020;-67
2021/08/18 01:54:07;;;;;;;19.02;5.90;;;;;;;;;;5066717;28;20246;-67
2021/08/18 01:56:33;;;;;;;14.45;5.47;;;;;;;;;;5067825;28;20044;-67
2021/08/18 01:59:01;;;;;;;21.23;5.35;;;;;;;;;;5069466;28;20028;-67
2021/08/18 02:01:27;;;;;;;15.88;4.90;;;;;;;;;;5068053;28;20040;-67
2021/08/18 02:03:53;;;;;;;27.23;5.93;;;;;;;;;;5068930;28;20465;-66
2021/08/18 02:06:19;;;;;;;19.10;5.40;;;;;;;;;;5072050;28;20107;-67
2021/08/18 02:08:45;;;;;;;22.98;6.00;;;;;;;;;;5067389;28;20039;-67
2021/08/18 02:11:12;;;;;;;19.55;5.28;;;;;;;;;;5069574;28;20496;-67
2021/08/18 02:13:38;;;;;;;15.48;5.22;;;;;;;;;;5067543;28;20032;-68
2021/08/18 02:16:05;;;;;;;13.85;5.32;;;;;;;;;;5066333;28;20503;-67
2021/08/18 02:18:31;;;;;;;18.55;6.15;;;;;;;;;;5063263;28;20483;-67
2021/08/18 02:20:58;;;;;;;15.48;5.20;;;;;;;;;;5068935;28;20036;-67
2021/08/18 02:23:24;;;;;;;36.80;6.25;;;;;;;;;;5067145;28;20040;-68
2021/08/18 02:25:50;;;;;;;21.77;5.45;;;;;;;;;;5068931;28;20085;-70
2021/08/18 02:28:17;;;;;;;20.90;5.35;;;;;;;;;;5067437;28;20029;-67
2021/08/18 02:30:43;;;;;;;18.33;5.47;;;;;;;;;;5065616;28;20112;-67
2021/08/18 02:33:09;;;;;;;18.30;4.93;;;;;;;;;;5068633;28;20213;-69
2021/08/18 02:35:36;;;;;;;15.40;4.70;;;;;;;;;;5065766;28;20084;-67
2021/08/18 02:38:04;;;;;;;13.98;4.80;;;;;;;;;;5068552;28;20126;-67
2021/08/18 02:40:30;;;;;;;17.95;5.40;;;;;;;;;;5067222;28;20606;-67
2021/08/18 02:42:57;;;;;;;15.65;5.65;;;;;;;;;;5075711;28;20036;-67
2021/08/18 02:45:24;;;;;;;18.83;5.20;;;;;;;;;;5070445;28;20016;-67
2021/08/18 02:47:50;;;;;;;17.00;5.25;;;;;;;;;;5065697;28;20039;-67
2021/08/18 02:50:18;;;;;;;13.88;5.35;;;;;;;;;;5071820;28;20029;-71
2021/08/18 02:52:44;;;;;;;14.52;4.93;;;;;;;;;;5071356;28;20062;-67
2021/08/18 02:55:10;;;;;;;10.48;4.72;;;;;;;;;;5064381;28;20047;-67
2021/08/18 02:57:36;;;;;;;17.45;4.35;;;;;;;;;;5066512;28;20041;-71
2021/08/18 03:00:04;;;;;;;17.00;5.85;;;;;;;;;;5067385;28;20898;-67
2021/08/18 03:02:30;;;;;;;17.40;5.15;;;;;;;;;;5058665;28;20032;-67
2021/08/18 03:04:56;;;;;;;13.00;4.40;;;;;;;;;;5065289;28;20082;-68
2021/08/18 03:07:22;;;;;;;13.93;4.80;;;;;;;;;;5065455;28;20107;-67
2021/08/18 03:09:48;;;;;;;13.32;5.07;;;;;;;;;;5069277;28;20487;-67
2021/08/18 03:12:15;;;;;;;14.05;4.78;;;;;;;;;;5066140;28;20028;-67
2021/08/18 03:14:41;;;;;;;14.40;5.72;;;;;;;;;;5067291;28;20514;-68
2021/08/18 03:17:07;;;;;;;16.38;4.68;;;;;;;;;;5064184;28;20048;-70
2021/08/18 03:19:33;;;;;;;18.42;5.60;;;;;;;;;;5063807;28;20098;-67
2021/08/18 03:21:59;;;;;;;13.85;4.90;;;;;;;;;;5068346;28;20085;-67
2021/08/18 03:24:26;;;;;;;11.23;4.78;;;;;;;;;;5067959;28;20020;-67
2021/08/18 03:26:52;;;;;;;14.27;4.80;;;;;;;;;;5069624;28;20028;-67
2021/08/18 03:29:18;;;;;;;17.38;5.50;;;;;;;;;;5069270;28;20084;-71
2021/08/18 03:31:45;;;;;;;14.45;5.25;;;;;;;;;;5068126;28;20467;-67
2021/08/18 03:34:11;;;;;;;14.40;4.90;;;;;;;;;;5068385;28;20028;-67
2021/08/18 03:36:37;;;;;;;11.98;4.53;;;;;;;;;;5067128;28;20013;-67
2021/08/18 03:39:03;;;;;;;17.77;5.15;;;;;;;;;;5070436;28;20028;-66
2021/08/18 03:41:29;;;;;;;17.65;5.10;;;;;;;;;;5069038;28;20016;-67
2021/08/18 03:43:55;;;;;;;14.55;5.03;;;;;;;;;;5067330;28;20107;-67
2021/08/18 03:46:21;;;;;;;14.82;5.40;;;;;;;;;;5064730;28;20012;-66
2021/08/18 03:48:47;;;;;;;16.63;5.57;;;;;;;;;;5065457;28;20025;-71
2021/08/18 03:51:14;;;;;;;23.73;6.00;;;;;;;;;;5071023;28;20028;-67
2021/08/18 03:53:40;;;;;;;28.95;6.55;;;;;;;;;;5068014;28;20085;-69
2021/08/18 03:56:06;;;;;;;16.90;5.43;;;;;;;;;;5068833;28;20024;-69
2021/08/18 03:58:32;;;;;;;25.73;6.40;;;;;;;;;;5073151;28;20035;-68
2021/08/18 04:00:58;;;;;;;20.65;6.13;;;;;;;;;;5070956;28;20035;-68
2021/08/18 04:03:24;;;;;;;18.38;5.45;;;;;;;;;;5071735;28;20024;-68
2021/08/18 04:05:51;;;;;;;18.48;5.90;;;;;;;;;;5071401;28;20016;-68
2021/08/18 04:08:17;;;;;;;22.88;5.95;;;;;;;;;;5073961;28;20031;-71
2021/08/18 04:10:43;;;;;;;18.27;5.65;;;;;;;;;;5072192;28;20575;-68
2021/08/18 04:13:09;;;;;;;20.35;6.05;;;;;;;;;;5067081;28;20032;-68
2021/08/18 04:15:37;;;;;;;20.45;6.00;;;;;;;;;;5070119;28;20499;-68
2021/08/18 04:18:03;;;;;;;17.88;6.03;;;;;;;;;;5070172;28;20048;-68
2021/08/18 04:20:29;;;;;;;14.57;5.30;;;;;;;;;;5073960;28;20439;-68
2021/08/18 04:22:56;;;;;;;19.05;6.03;;;;;;;;;;5069178;28;20044;-69
2021/08/18 04:25:23;;;;;;;16.20;5.45;;;;;;;;;;5073297;28;20020;-68
2021/08/18 04:27:49;;;;;;;17.38;5.22;;;;;;;;;;5068749;28;20051;-74
2021/08/18 04:30:16;;;;;;;30.85;6.03;;;;;;;;;;5071101;28;20031;-72
2021/08/18 04:32:42;;;;;;;20.48;6.38;;;;;;;;;;5070240;28;20085;-75
2021/08/18 04:35:09;;;;;;;17.67;5.57;;;;;;;;;;5067816;28;20032;-72
2021/08/18 04:37:35;;;;;;;18.70;5.88;;;;;;;;;;5069995;28;20044;-73
2021/08/18 04:40:03;;;;;;;23.23;6.43;;;;;;;;;;5066850;28;20032;-72
2021/08/18 04:42:34;;;;;;;18.02;6.20;;;;;;;;;;5071401;28;20030;-73
2021/08/18 04:45:00;;;;;;;19.42;5.50;;;;;;;;;;5064263;28;20036;-72
2021/08/18 04:47:29;;;;;;;21.35;6.05;;;;;;;;;;5068339;28;20105;-72
2021/08/18 04:49:55;;;;;;;26.33;6.15;;;;;;;;;;5069262;28;20023;-72
2021/08/18 04:52:21;;;;;;;24.02;6.93;;;;;;;;;;5068921;28;20085;-73
2021/08/18 04:54:47;;;;;;;18.80;5.97;;;;;;;;;;5067809;28;20117;-73
2021/08/18 04:57:13;;;;;;;13.82;5.65;;;;;;;;;;5065578;28;20033;-73
2021/08/18 04:59:39;;;;;;;19.88;6.00;;;;;;;;;;5071331;28;20406;-73
2021/08/18 05:02:05;;;;;;;19.10;5.88;;;;;;;;;;5067720;28;20024;-74
2021/08/18 05:04:34;;;;;;;21.48;6.10;;;;;;;;;;5072453;28;20452;-73
2021/08/18 05:07:00;;;;;;;22.20;5.63;;;;;;;;;;5071745;28;20028;-75
2021/08/18 05:09:29;;;;;;;15.98;4.80;;;;;;;;;;5069602;28;20028;-75
2021/08/18 05:11:56;;;;;;;20.13;6.22;;;;;;;;;;5069995;28;20036;-75
2021/08/18 05:14:22;;;;;;;20.77;5.75;;;;;;;;;;5063898;28;20024;-74
2021/08/18 05:16:48;;;;;;;21.38;6.00;;;;;;;;;;5066193;28;20025;-74
2021/08/18 05:19:15;;;;;;;22.55;6.00;;;;;;;;;;5066913;28;20044;-73
2021/08/18 05:21:41;;;;;;;24.05;6.32;;;;;;;;;;5067181;28;20025;-73
2021/08/18 05:24:07;;;;;;;19.38;5.72;;;;;;;;;;5074262;28;20028;-73
2021/08/18 05:26:33;;;;;;;15.95;4.78;;;;;;;;;;5067526;28;20444;-75
2021/08/18 05:29:00;;;;;;;16.08;5.82;;;;;;;;;;5069645;28;20029;-74
2021/08/18 05:31:26;;;;;;;18.42;6.10;;;;;;;;;;5069179;28;20020;-74
2021/08/18 05:33:52;;;;;;;19.13;5.88;;;;;;;;;;5070104;28;20024;-73
2021/08/18 05:36:18;;;;;;;18.60;5.70;;;;;;;;;;5071618;28;20024;-73
2021/08/18 05:38:44;;;;;;;15.98;5.18;;;;;;;;;;5074489;28;20251;-73
2021/08/18 05:41:11;;;;;;;17.80;5.25;;;;;;;;;;5069792;28;20024;-74
2021/08/18 05:43:37;;;;;;;16.67;5.75;;;;;;;;;;5065901;28;20108;-74
2021/08/18 05:46:03;;;;;;;19.80;5.35;;;;;;;;;;5070628;28;20028;-74
2021/08/18 05:48:30;;;;;;;17.73;5.88;;;;;;;;;;5068622;28;20017;-73
2021/08/18 05:50:56;;;;;;;18.58;5.90;;;;;;;;;;5069964;28;20522;-73
2021/08/18 05:53:23;;;;;;;18.13;5.50;;;;;;;;;;5076556;28;20019;-72
2021/08/18 05:55:49;;;;;;;18.15;5.63;;;;;;;;;;5063569;28;20190;-73
2021/08/18 05:58:16;;;;;;;16.70;5.35;;;;;;;;;;5060673;28;20122;-72
2021/08/18 06:00:42;;;;;;;20.38;5.40;;;;;;;;;;5065154;28;20051;-73
2021/08/18 06:03:09;;;;;;;17.58;5.00;;;;;;;;;;5062762;28;20069;-72
2021/08/18 06:05:38;;;;;;;16.35;4.80;;;;;;;;;;5061232;28;20009;-72
2021/08/18 06:08:05;;;;;;;15.73;5.28;;;;;;;;;;5061932;28;20096;-72
2021/08/18 06:10:31;;;;;;;16.48;5.10;;;;;;;;;;5062844;28;20066;-73
2021/08/18 06:12:57;;;;;;;12.93;4.93;;;;;;;;;;5060215;28;20029;-72
2021/08/18 06:15:24;;;;;;;17.10;5.95;;;;;;;;;;5061813;28;20028;-74
2021/08/18 06:17:50;;;;;;;14.75;5.28;;;;;;;;;;5066839;28;20032;-71
2021/08/18 06:20:17;;;;;;;18.17;5.43;;;;;;;;;;5063283;28;20036;-71
2021/08/18 06:22:44;;;;;;;20.08;5.30;;;;;;;;;;5058565;28;20028;-72
2021/08/18 06:25:10;;;;;;;18.98;4.82;;;;;;;;;;5062053;28;20025;-71
2021/08/18 06:27:37;;;;;;;13.90;4.68;;;;;;;;;;5060935;28;20081;-71
2021/08/18 06:30:03;;;;;;;11.02;4.07;;;;;;;;;;5063025;28;20024;-74
2021/08/18 06:32:29;;;;;;;14.52;4.47;;;;;;;;;;5060425;28;20487;-71
2021/08/18 06:34:56;;;;;;;12.75;4.40;;;;;;;;;;5063088;28;20107;-72
2021/08/18 06:37:22;;;;;;;15.27;4.88;;;;;;;;;;5062883;28;20039;-72
2021/08/18 06:39:49;;;;;;;12.50;4.50;;;;;;;;;;5066664;28;20432;-71
2021/08/18 06:42:15;;;;;;;16.92;5.30;;;;;;;;;;5073135;28;20094;-72
2021/08/18 06:44:42;;;;;;;14.40;4.60;;;;;;;;;;5066029;28;20105;-72
2021/08/18 06:47:08;;;;;;;13.85;4.68;;;;;;;;;;5067531;28;20051;-72
2021/08/18 06:49:34;;;;;;;19.15;5.65;;;;;;;;;;5063530;28;20017;-71
2021/08/18 06:52:00;;;;;;;12.32;4.45;;;;;;;;;;5061360;28;20095;-72
2021/08/18 06:54:27;;;;;;;13.02;4.53;;;;;;;;;;5061390;28;20385;-71
2021/08/18 06:56:54;;;;;;;21.58;5.00;;;;;;;;;;5065569;28;20029;-71
2021/08/18 06:59:20;;;;;;;14.68;4.72;;;;;;;;;;5069223;28;20111;-71
2021/08/18 07:01:46;;;;;;;17.60;4.53;;;;;;;;;;5059254;28;20012;-71
2021/08/18 07:04:13;;;;;;;13.55;5.18;;;;;;;;;;5061216;28;20021;-70
2021/08/18 07:06:39;;;;;;;12.55;4.00;;;;;;;;;;5067307;28;20032;-70
2021/08/18 07:09:06;;;;;;;11.80;4.47;;;;;;;;;;5066657;28;20221;-71
2021/08/18 07:11:32;;;;;;;13.60;4.57;;;;;;;;;;5063309;28;20047;-70
2021/08/18 07:13:59;;;;;;;11.48;4.32;;;;;;;;;;5062165;28;20039;-71
2021/08/18 07:16:29;;;;;;;11.70;4.03;;;;;;;;;;5059619;28;20112;-70
2021/08/18 07:18:55;;;;;;;16.42;4.25;;;;;;;;;;5061736;28;20037;-70
2021/08/18 07:21:22;;;;;;;9.48;4.28;;;;;;;;;;5062196;28;20066;-71
2021/08/18 07:23:49;;;;;;;10.38;4.15;;;;;;;;;;5063665;28;20017;-72
2021/08/18 07:26:15;;;;;;;12.80;4.30;;;;;;;;;;5062985;28;20013;-66
2021/08/18 07:28:41;;;;;;;13.30;4.47;;;;;;;;;;5062627;28;20081;-67
2021/08/18 07:31:07;;;;;;;12.23;4.15;;;;;;;;;;5060548;28;20508;-67
2021/08/18 07:33:33;;;;;;;11.32;4.05;;;;;;;;;;5064796;28;20012;-66
2021/08/18 07:35:59;;;;;;;12.02;3.92;;;;;;;;;;5066888;28;20396;-66
2021/08/18 07:38:26;;;;;;;12.68;4.35;;;;;;;;;;5069066;28;20037;-67
2021/08/18 07:40:52;;;;;;;13.48;4.00;;;;;;;;;;5066338;28;20029;-67
2021/08/18 07:43:18;;;;;;;16.45;4.38;;;;;;;;;;5072561;28;20033;-67
2021/08/18 07:45:44;;;;;;;24.58;5.32;;;;;;;;;;5077121;28;20043;-66
2021/08/18 07:48:10;;;;;;;50.08;6.75;;;;;;;;;;5067149;28;20021;-68
2021/08/18 07:50:37;;;;;;;21.77;4.97;;;;;;;;;;5066125;28;20380;-67
2021/08/18 07:53:03;;;;;;;17.65;5.20;;;;;;;;;;5069476;28;20100;-68
2021/08/18 07:55:29;;;;;;;14.63;4.22;;;;;;;;;;5065850;28;20048;-67
2021/08/18 07:57:55;;;;;;;17.00;4.95;;;;;;;;;;5066121;28;20150;-66
2021/08/18 08:00:21;;;;;;;15.52;5.70;;;;;;;;;;5073813;28;20016;-67
2021/08/18 08:02:47;;;;;;;12.43;4.25;;;;;;;;;;5068455;28;20259;-66
2021/08/18 08:05:15;;;;;;;9.77;4.57;;;;;;;;;;5071647;28;20023;-66
2021/08/18 08:07:41;;;;;;;12.55;4.75;;;;;;;;;;5068303;28;20020;-67
2021/08/18 08:10:08;;;;;;;11.43;4.30;;;;;;;;;;5074285;28;20031;-67
2021/08/18 08:12:34;;;;;;;10.52;4.25;;;;;;;;;;5067950;28;20465;-67
2021/08/18 08:15:01;;;;;;;15.35;4.85;;;;;;;;;;5068492;28;20377;-68
2021/08/18 08:17:27;;;;;;;13.15;4.43;;;;;;;;;;5062083;28;20238;-70
2021/08/18 08:19:53;;;;;;;15.10;4.47;;;;;;;;;;5064518;28;20123;-71
2021/08/18 08:22:20;;;;;;;23.40;5.53;;;;;;;;;;5066368;28;20039;-71
2021/08/18 08:24:46;;;;;;;9.45;3.78;;;;;;;;;;5068220;28;20057;-66
2021/08/18 08:27:13;;;;;;;17.83;4.47;;;;;;;;;;5070816;28;20103;-66
2021/08/18 08:29:39;;;;;;;11.45;4.20;;;;;;;;;;5067432;28;20017;-66
2021/08/18 08:32:06;;;;;;;15.40;4.93;;;;;;;;;;5061930;28;20021;-66
2021/08/18 08:34:32;;;;;;;14.45;4.07;;;;;;;;;;5069832;28;20535;-68
2021/08/18 08:36:58;;;;;;;13.23;4.40;;;;;;;;;;5069220;28;20641;-67
2021/08/18 08:39:24;;;;;;;16.05;4.97;;;;;;;;;;5068786;28;20440;-66
2021/08/18 08:41:50;;;;;;;16.52;4.53;;;;;;;;;;5063576;28;20453;-67
2021/08/18 08:44:18;;;;;;;9.90;3.70;;;;;;;;;;5061976;28;20024;-67
2021/08/18 08:46:46;;;;;;;19.75;4.90;;;;;;;;;;5066397;28;20023;-66
2021/08/18 08:49:12;;;;;;;16.08;5.38;;;;;;;;;;5064951;28;20109;-66
2021/08/18 08:51:39;;;;;;;14.18;5.15;;;;;;;;;;5063373;28;20017;-65
2021/08/18 08:54:05;;;;;;;13.63;4.40;;;;;;;;;;5061436;28;20060;-65
2021/08/18 08:56:31;;;;;;;13.18;5.45;;;;;;;;;;5064836;28;20035;-67
2021/08/18 08:58:57;;;;;;;11.90;5.10;;;;;;;;;;5063119;28;20464;-69
2021/08/18 09:01:23;;;;;;;14.40;4.55;;;;;;;;;;5065016;28;20017;-67
2021/08/18 09:03:49;;;;;;;16.65;5.22;;;;;;;;;;5066047;28;20737;-67
2021/08/18 09:06:20;;;;;;;13.73;4.38;;;;;;;;;;5064490;28;20033;-69
2021/08/18 09:08:48;;;;;;;17.20;4.90;;;;;;;;;;5066931;28;20184;-68
2021/08/18 09:11:15;;;;;;;21.50;6.55;;;;;;;;;;5069318;28;20028;-69
2021/08/18 09:13:41;;;;;;;12.90;4.25;;;;;;;;;;5070382;28;20468;-68
2021/08/18 09:16:07;;;;;;;16.50;4.68;;;;;;;;;;5065542;28;20020;-67
2021/08/18 09:18:41;;;;;;;14.60;4.97;;;;;;;;;;5068583;28;20120;-67
2021/08/18 09:21:26;;;;;;;12.18;4.80;;;;;;;;;;5070683;28;20086;-67
2021/08/18 09:23:55;;;;;;;17.15;5.60;;;;;;;;;;5070524;28;20016;-66
2021/08/18 09:26:21;;;;;;;16.48;5.15;;;;;;;;;;5067219;28;20201;-67
2021/08/18 09:28:49;;;;;;;14.07;4.55;;;;;;;;;;5070279;28;20016;-66
2021/08/18 09:31:25;;;;;;;13.20;4.82;;;;;;;;;;5068702;28;20422;-67
2021/08/18 09:33:57;;;;;;;12.18;4.38;;;;;;;;;;5068116;28;20020;-67
2021/08/18 09:36:25;;;;;;;12.43;4.78;;;;;;;;;;5068405;28;20477;-67
2021/08/18 09:38:51;;;;;;;19.05;5.45;;;;;;;;;;5070106;28;20103;-67
2021/08/18 09:41:22;;;;;;;14.38;5.25;;;;;;;;;;5071115;28;20026;-67
2021/08/18 09:43:48;;;;;;;;;;;;;;;;;;5070651;28;20078;-67
2021/08/18 09:46:14;;;;;;;11.90;4.53;;;;;;;;;;5072585;28;20365;-65
2021/08/18 09:48:44;;;;;;;13.32;4.93;;;;;;;;;;5064936;28;20029;-66
2021/08/18 09:51:10;;;;;;;17.08;5.55;;;;;;;;;;5070148;28;20016;-66
2021/08/18 09:53:41;;;;;;;11.07;4.85;;;;;;;;;;5068033;28;20028;-66
2021/08/18 09:56:11;;;;;;;16.00;5.67;;;;;;;;;;5071270;28;20028;-67
2021/08/18 09:58:37;;;;;;;10.67;4.17;;;;;;;;;;5068043;28;20210;-65
2021/08/18 10:01:11;;;;;;;14.07;4.93;;;;;;;;;;5070423;28;20476;-65
2021/08/18 10:03:38;;;;;;;13.27;4.72;;;;;;;;;;5071690;28;20055;-65
2021/08/18 10:06:05;;;;;;;14.30;4.82;;;;;;;;;;5067880;28;20028;-66
2021/08/18 10:08:33;;;;;;;16.83;5.55;;;;;;;;;;5070233;28;20380;-65
2021/08/18 10:10:59;;;;;;;14.65;4.75;;;;;;;;;;5066888;28;20090;-65
2021/08/18 10:13:26;;;;;;;12.52;5.15;;;;;;;;;;5071588;28;20362;-66
2021/08/18 10:15:53;;;;;;;15.77;5.50;;;;;;;;;;5069467;28;20025;-65
2021/08/18 10:18:38;;;;;;;10.73;4.35;;;;;;;;;;5069247;28;20404;-66
2021/08/18 10:21:11;;;;;;;10.48;4.72;;;;;;;;;;5067013;28;20052;-66
2021/08/18 10:23:46;;;;;;;15.70;5.20;;;;;;;;;;5072533;28;20023;-66
2021/08/18 10:26:31;;;;;;;12.80;5.03;;;;;;;;;;5064660;28;20024;-66
2021/08/18 10:29:05;;;;;;;13.43;4.80;;;;;;;;;;5069265;28;20021;-66
2021/08/18 10:31:44;;;;;;;12.38;5.47;;;;;;;;;;5069246;28;20024;-66
2021/08/18 10:34:11;;;;;;;12.90;4.68;;;;;;;;;;5068635;28;20031;-66
2021/08/18 10:36:43;;;;;;;12.80;4.78;;;;;;;;;;5069642;28;20078;-67
2021/08/18 10:39:21;;;;;;;12.32;4.68;;;;;;;;;;5069227;28;20454;-66
2021/08/18 10:41:56;;;;;;;18.05;5.88;;;;;;;;;;5069138;28;20135;-66
2021/08/18 10:44:36;;;;;;;19.35;5.43;;;;;;;;;;5070251;28;20040;-68
2021/08/18 10:47:12;;;;;;;12.07;4.55;;;;;;;;;;5065322;28;20040;-66
2021/08/18 10:49:38;;;;;;;14.98;4.90;;;;;;;;;;5068060;28;20520;-67
2021/08/18 10:52:05;;;;;;;18.00;5.80;;;;;;;;;;5068758;28;20245;-66
2021/08/18 10:54:31;;;;;;;20.02;5.30;;;;;;;;;;5072093;28;20038;-66
2021/08/18 10:56:58;;;;;;;13.93;5.28;;;;;;;;;;5070587;28;20075;-66
2021/08/18 10:59:36;;;;;;;15.32;4.32;;;;;;;;;;5067867;28;20490;-66
2021/08/18 11:02:09;;;;;;;17.90;5.35;;;;;;;;;;5065561;28;20033;-68
2021/08/18 11:04:48;;;;;;;18.63;5.65;;;;;;;;;;5067327;28;20020;-67
2021/08/18 11:07:15;;;;;;;14.20;5.20;;;;;;;;;;5069128;28;20073;-68
2021/08/18 11:09:51;;;;;;;14.27;4.80;;;;;;;;;;5067005;28;20794;-68
2021/08/18 11:12:37;;;;;;;16.92;5.45;;;;;;;;;;5067728;28;20052;-69
2021/08/18 11:15:03;;;;;;;19.10;5.55;;;;;;;;;;5070623;28;20051;-69
2021/08/18 11:17:30;;;;;;;11.95;4.53;;;;;;;;;;5069411;28;20029;-67
2021/08/18 11:19:56;;;;;;;17.92;5.05;;;;;;;;;;5068662;28;20083;-67
2021/08/18 11:22:24;;;;;;;15.15;5.35;;;;;;;;;;5066730;28;20016;-69
2021/08/18 11:24:50;;;;;;;16.20;5.32;;;;;;;;;;5068513;28;20025;-69
2021/08/18 11:27:19;;;;;;;11.68;5.18;;;;;;;;;;5068764;28;20500;-69
2021/08/18 11:29:45;;;;;;;17.40;5.03;;;;;;;;;;5071433;28;20118;-68
2021/08/18 11:32:11;;;;;;;12.77;4.82;;;;;;;;;;5068947;28;20024;-68
2021/08/18 11:34:40;;;;;;;14.38;4.95;;;;;;;;;;5066313;28;20039;-68
2021/08/18 11:37:07;;;;;;;17.77;5.85;;;;;;;;;;5068565;28;20048;-69
2021/08/18 11:39:38;;;;;;;20.55;6.40;;;;;;;;;;5071276;28;20083;-69
2021/08/18 11:42:14;;;;;;;15.18;5.15;;;;;;;;;;5068528;28;20047;-67
2021/08/18 11:44:42;;;;;;;16.15;5.22;;;;;;;;;;5064168;28;20044;-67
2021/08/18 11:47:13;;;;;;;14.70;5.05;;;;;;;;;;5065428;28;20029;-67
2021/08/18 11:49:39;;;;;;;19.98;6.20;;;;;;;;;;5070413;28;20036;-67
2021/08/18 11:52:06;;;;;;;19.63;5.93;;;;;;;;;;5066037;28;20021;-67
2021/08/18 11:54:33;;;;;;;16.45;5.55;;;;;;;;;;5064985;28;20036;-68
2021/08/18 11:57:00;;;;;;;21.23;6.10;;;;;;;;;;5067016;28;20044;-67
2021/08/18 11:59:27;;;;;;;17.95;5.75;;;;;;;;;;5069673;28;20029;-70
2021/08/18 12:01:54;;;;;;;13.38;5.57;;;;;;;;;;5067975;28;20021;-71
2021/08/18 12:04:21;;;;;;;19.50;5.28;;;;;;;;;;5063750;28;20040;-70
2021/08/18 12:06:47;;;;;;;14.68;5.22;;;;;;;;;;5063499;28;20017;-70
2021/08/18 12:09:23;;;;;;;19.15;6.13;;;;;;;;;;5066226;28;20132;-70
2021/08/18 12:11:49;;;;;;;14.70;6.15;;;;;;;;;;5072228;28;20028;-70
2021/08/18 12:14:17;;;;;;;15.13;6.05;;;;;;;;;;5070371;28;20035;-70
2021/08/18 12:16:44;;;;;;;18.52;6.85;;;;;;;;;;5068603;28;20032;-69
2021/08/18 12:19:28;;;;;;;14.38;5.75;;;;;;;;;;5071701;28;20503;-70
2021/08/18 12:22:07;;;;;;;19.27;6.30;;;;;;;;;;5071336;28;20024;-70
2021/08/18 12:24:34;;;;;;;21.67;6.55;;;;;;;;;;5074652;28;20016;-69
2021/08/18 12:27:01;;;;;;;20.10;6.38;;;;;;;;;;5071978;28;20111;-70
2021/08/18 12:29:29;;;;;;;17.58;6.07;;;;;;;;;;5073126;28;20129;-69
2021/08/18 12:32:09;;;;;;;18.25;6.03;;;;;;;;;;5071207;28;20027;-70
2021/08/18 12:34:35;;;;;;;14.20;5.85;;;;;;;;;;5069506;28;20099;-69
2021/08/18 12:37:21;;;;;;;21.92;6.60;;;;;;;;;;5069427;28;20105;-70
2021/08/18 12:39:54;;;;;;;16.75;6.35;;;;;;;;;;5073031;28;20485;-69
2021/08/18 12:42:24;;;;;;;14.55;5.72;;;;;;;;;;5070706;28;20036;-69
2021/08/18 12:45:11;;;;;;;16.97;6.60;;;;;;;;;;5071348;28;20431;-70
2021/08/18 12:47:38;;;;;;;20.40;6.97;;;;;;;;;;5070614;28;20473;-69
2021/08/18 12:50:06;;;;;;;22.20;5.95;;;;;;;;;;5068148;28;20016;-69
2021/08/18 12:52:32;;;;;;;16.33;5.90;;;;;;;;;;5071673;28;20103;-69
2021/08/18 12:55:03;;;;;;;20.40;6.25;;;;;;;;;;5069589;28;20119;-70
2021/08/18 12:57:29;;;;;;;18.98;5.75;;;;;;;;;;5068110;28;20486;-67
2021/08/18 12:59:56;;;;;;;23.60;6.30;;;;;;;;;;5070188;28;20103;-67
2021/08/18 13:02:22;;;;;;;17.35;6.20;;;;;;;;;;5067822;28;20379;-67
2021/08/18 13:04:48;;;;;;;17.33;5.53;;;;;;;;;;5071096;28;20024;-68
2021/08/18 13:07:15;;;;;;;15.40;6.25;;;;;;;;;;5069210;28;20032;-68
2021/08/18 13:09:41;;;;;;;16.55;6.20;;;;;;;;;;5065220;28;20017;-68
2021/08/18 13:12:07;;;;;;;11.43;5.65;;;;;;;;;;5072932;28;20028;-67
2021/08/18 13:14:34;;;;;;;13.30;6.00;;;;;;;;;;5069618;28;20021;-68
2021/08/18 13:17:01;;;;;;;16.85;6.15;;;;;;;;;;5070323;28;20095;-67
2021/08/18 13:19:29;;;;;;;15.90;6.22;;;;;;;;;;5066338;28;20044;-67
2021/08/18 13:21:55;;;;;;;13.80;6.00;;;;;;;;;;5070927;28;20110;-67
2021/08/18 13:24:21;;;;;;;12.70;5.70;;;;;;;;;;5066105;28;20035;-67
2021/08/18 13:26:49;;;;;;;21.80;6.97;;;;;;;;;;5070188;28;20128;-69
2021/08/18 13:29:15;;;;;;;16.63;6.50;;;;;;;;;;5068955;28;20094;-67
2021/08/18 13:31:41;;;;;;;13.15;6.90;;;;;;;;;;5068293;28;20029;-69
2021/08/18 13:34:09;;;;;;;17.25;6.22;;;;;;;;;;5067430;28;20024;-68
2021/08/18 13:36:36;;;;;;;19.88;7.20;;;;;;;;;;5069676;28;20036;-66
2021/08/18 13:39:02;;;;;;;15.23;6.53;;;;;;;;;;5064349;28;20036;-69
2021/08/18 13:41:29;;;;;;;19.33;7.25;;;;;;;;;;5067925;28;20024;-69
2021/08/18 13:43:55;;;;;;;14.38;6.55;;;;;;;;;;5067872;28;20028;-67
2021/08/18 13:46:22;;;;;;;19.42;6.35;;;;;;;;;;5071525;28;20040;-67
2021/08/18 13:48:48;;;;;;;17.17;6.53;;;;;;;;;;5067946;28;20035;-67
2021/08/18 13:51:14;;;;;;;20.83;6.93;;;;;;;;;;5067464;28;20016;-67
2021/08/18 13:53:40;;;;;;;16.88;6.30;;;;;;;;;;5065158;28;20073;-67
2021/08/18 13:56:06;;;;;;;18.88;5.93;;;;;;;;;;5068014;28;20143;-69
2021/08/18 13:58:33;;;;;;;15.82;6.10;;;;;;;;;;5069322;28;20035;-67
2021/08/18 14:00:59;;;;;;;16.90;6.82;;;;;;;;;;5068943;28;20078;-68
2021/08/18 14:03:26;;;;;;;16.45;6.95;;;;;;;;;;5059346;28;20073;-67
2021/08/18 14:05:53;;;;;;;12.95;5.88;;;;;;;;;;5069270;28;20026;-68
2021/08/18 14:08:19;;;;;;;19.48;6.43;;;;;;;;;;5068179;28;20036;-67
2021/08/18 14:10:45;;;;;;;15.25;6.57;;;;;;;;;;5067861;28;20032;-69
2021/08/18 14:13:12;;;;;;;18.65;7.63;;;;;;;;;;5069712;28;20584;-68
2021/08/18 14:15:39;;;;;;;14.35;6.85;;;;;;;;;;5067121;28;20749;-68
2021/08/18 14:18:05;;;;;;;17.63;7.47;;;;;;;;;;5066141;28;20110;-67
2021/08/18 14:20:32;;;;;;;24.35;7.35;;;;;;;;;;5068370;28;20051;-68
2021/08/18 14:22:58;;;;;;;17.35;7.55;;;;;;;;;;5067081;28;20111;-67
2021/08/18 14:25:25;;;;;;;25.48;8.57;;;;;;;;;;5071892;28;20086;-68
2021/08/18 14:27:51;;;;;;;26.80;8.23;;;;;;;;;;5067555;28;20028;-67
2021/08/18 14:30:17;;;;;;;36.75;9.35;;;;;;;;;;5067692;28;20021;-67
2021/08/18 14:32:43;;;;;;;21.42;7.13;;;;;;;;;;5071428;28;20027;-67